Time;durP1;ratioP1;P1;durP2;ratioP2;P2;SDS_P1;SDS_P2;PMS_P1;PMS_P2;Temp;Humidity;BMP_temperature;BMP_pressure;BME280_temperature;BME280_humidity;BME280_pressure;Samples;Min_cycle;Max_cycle;Signal;HPM_P1;HPM_P2
2022/04/26 03:39:51;;;;;;;0.20;0.10;;;11.40;99.90;;;;;;25504927;23;20182;-71
2022/04/26 03:49:56;;;;;;;0.20;0.10;;;11.70;99.90;;;;;;25530729;23;20214;-73
2022/04/26 04:00:00;;;;;;;0.20;0.10;;;11.90;99.90;;;;;;25504567;23;20483;-74
2022/04/26 04:10:06;;;;;;;0.20;0.10;;;12.00;99.90;;;;;;25504775;23;20187;-74
2022/04/26 04:20:11;;;;;;;0.20;0.10;;;11.80;99.90;;;;;;25504895;23;20311;-75
2022/04/26 04:30:17;;;;;;;0.20;0.10;;;11.60;99.90;;;;;;25529875;23;20191;-74
2022/04/26 04:40:21;;;;;;;0.20;0.10;;;11.10;99.90;;;;;;25526975;23;20171;-71
2022/04/26 04:50:26;;;;;;;0.20;0.10;;;11.40;99.90;;;;;;25526953;23;20195;-73
2022/04/26 05:00:29;;;;;;;0.20;0.10;;;10.90;99.90;;;;;;25526901;23;20198;-73
2022/04/26 05:10:36;;;;;;;0.20;0.00;;;10.80;99.90;;;;;;25498939;23;20206;-74
2022/04/26 05:20:40;;;;;;;0.20;0.10;;;11.00;99.90;;;;;;25529650;23;20175;-74
2022/04/26 05:30:45;;;;;;;0.20;0.10;;;11.20;99.90;;;;;;25499069;23;20198;-72
2022/04/26 05:40:50;;;;;;;0.53;0.53;;;11.30;99.90;;;;;;25524498;23;20194;-72
2022/04/26 05:50:55;;;;;;;0.20;0.10;;;12.00;99.90;;;;;;25521574;23;20196;-72
2022/04/26 06:00:59;;;;;;;0.20;0.10;;;12.10;99.90;;;;;;25518792;23;20195;-72
2022/04/26 06:11:04;;;;;;;0.20;0.10;;;12.70;99.90;;;;;;25514820;23;20278;-73
2022/04/26 06:21:08;;;;;;;0.20;0.10;;;13.00;99.90;;;;;;25521473;23;20262;-74
2022/04/26 06:31:14;;;;;;;0.20;0.10;;;13.50;99.90;;;;;;25496218;23;20680;-72
2022/04/26 06:41:18;;;;;;;0.20;0.10;;;14.00;99.90;;;;;;25494217;23;20203;-70
2022/04/26 06:51:24;;;;;;;0.20;0.10;;;14.10;99.90;;;;;;25522011;23;20205;-72
2022/04/26 07:01:28;;;;;;;0.20;0.10;;;14.50;99.90;;;;;;25495930;23;20191;-77
2022/04/26 07:11:45;;;;;;;0.20;0.00;;;14.70;99.90;;;;;;25526678;23;20261;-74
2022/04/26 07:21:49;;;;;;;0.20;0.10;;;15.10;99.90;;;;;;25500260;23;20175;-72
2022/04/26 07:32:10;;;;;;;0.20;0.00;;;15.30;99.90;;;;;;25530224;23;20254;-72
2022/04/26 07:42:14;;;;;;;0.20;0.10;;;15.50;99.90;;;;;;25526475;23;20213;-73
2022/04/26 07:52:20;;;;;;;0.20;0.10;;;15.70;99.90;;;;;;25524898;23;20195;-72
2022/04/26 08:02:24;;;;;;;0.20;0.10;;;15.80;99.90;;;;;;25524360;23;20250;-74
2022/04/26 08:12:30;;;;;;;0.20;0.07;;;16.20;99.90;;;;;;25522664;23;20258;-71
2022/04/26 08:22:34;;;;;;;0.20;0.10;;;16.30;99.90;;;;;;25501887;23;20174;-72
2022/04/26 08:32:43;;;;;;;0.43;0.20;;;16.30;99.90;;;;;;25528028;23;20191;-74
2022/04/26 08:42:50;;;;;;;0.20;0.10;;;16.50;99.90;;;;;;25526026;23;20505;-72
2022/04/26 08:52:56;;;;;;;0.20;0.20;;;16.50;99.90;;;;;;25515440;23;20190;-71
2022/04/26 09:03:02;;;;;;;0.20;0.10;;;16.50;99.90;;;;;;25519585;23;20206;-72
2022/04/26 09:13:09;;;;;;;0.20;0.10;;;16.80;99.90;;;;;;25517692;23;20202;-70
2022/04/26 09:23:21;;;;;;;0.40;0.40;;;17.10;99.90;;;;;;25515671;23;20171;-69
2022/04/26 09:33:43;;;;;;;0.20;0.10;;;17.60;99.90;;;;;;25484647;23;20182;-74
2022/04/26 09:43:57;;;;;;;0.20;0.10;;;17.50;99.90;;;;;;25517243;23;20195;-73
2022/04/26 09:54:03;;;;;;;0.20;0.00;;;17.50;99.90;;;;;;25521596;23;20190;-72
2022/04/26 10:04:09;;;;;;;0.50;0.50;;;18.00;99.90;;;;;;25493511;23;20262;-74
2022/04/26 10:14:15;;;;;;;1.13;0.63;;;17.90;99.90;;;;;;25495602;23;20194;-72
2022/04/26 10:24:20;;;;;;;0.20;0.10;;;18.20;99.90;;;;;;25520363;23;20155;-71
2022/04/26 10:34:34;;;;;;;0.40;0.40;;;18.40;99.90;;;;;;25498261;23;20229;-72
2022/04/26 10:44:43;;;;;;;0.20;0.10;;;18.70;99.90;;;;;;25503159;23;20195;-72
2022/04/26 10:55:06;;;;;;;0.20;0.13;;;18.90;99.90;;;;;;25527498;23;20440;-73
2022/04/26 11:05:11;;;;;;;0.20;0.00;;;19.40;99.90;;;;;;25528466;23;20486;-73
2022/04/26 11:15:19;;;;;;;0.50;0.50;;;20.60;99.90;;;;;;25524955;23;20202;-74
2022/04/26 11:35:52;;;;;;;0.20;0.10;;;20.30;99.90;;;;;;25514898;23;20246;-69
2022/04/26 11:45:58;;;;;;;0.20;0.00;;;19.80;99.90;;;;;;25491771;23;20221;-70
2022/04/26 11:56:05;;;;;;;0.20;0.10;;;21.70;99.90;;;;;;25487607;23;20194;-72
2022/04/26 12:06:10;;;;;;;0.20;0.00;;;21.70;99.90;;;;;;25510890;23;20231;-71
2022/04/26 12:16:19;;;;;;;0.20;0.00;;;22.80;99.90;;;;;;25480446;23;20178;-74
2022/04/26 12:26:23;;;;;;;0.20;0.03;;;23.20;99.90;;;;;;25482740;23;20266;-73
2022/04/26 12:36:48;;;;;;;0.20;0.10;;;23.90;99.90;;;;;;25477399;23;20167;-73
2022/04/26 12:57:31;;;;;;;0.20;0.10;;;24.60;99.90;;;;;;25491282;23;20258;-70
2022/04/26 13:07:34;;;;;;;0.20;0.10;;;23.70;99.90;;;;;;25515786;23;20186;-74
2022/04/26 13:17:40;;;;;;;0.20;0.00;;;24.60;99.90;;;;;;25519193;23;20198;-72
2022/04/26 13:27:47;;;;;;;0.20;0.00;;;23.80;99.90;;;;;;25490507;23;20183;-72
2022/04/26 13:37:54;;;;;;;0.20;0.00;;;24.50;99.90;;;;;;25517466;23;20171;-72
2022/04/26 13:47:58;;;;;;;0.20;0.05;;;24.80;99.90;;;;;;25490696;23;20202;-71
2022/04/26 13:58:08;;;;;;;0.20;0.10;;;24.70;99.90;;;;;;25493855;23;20300;-71
2022/04/26 14:08:12;;;;;;;0.20;0.00;;;24.30;99.90;;;;;;25519211;23;20205;-75
2022/04/26 14:28:46;;;;;;;0.20;0.00;;;26.70;99.90;;;;;;25521107;23;20263;-71
2022/04/26 14:38:51;;;;;;;0.20;0.00;;;25.60;99.90;;;;;;25497859;23;20203;-74
2022/04/26 14:48:55;;;;;;;0.20;0.00;;;26.60;99.90;;;;;;25519103;23;20230;-71
2022/04/26 14:59:02;;;;;;;0.20;0.00;;;26.60;99.90;;;;;;25487034;23;20209;-76
2022/04/26 15:19:35;;;;;;;0.20;0.10;;;25.40;99.90;;;;;;25488602;23;20378;-73
2022/04/26 15:29:40;;;;;;;0.20;0.00;;;24.80;99.90;;;;;;25513245;23;20187;-74
2022/04/26 15:39:47;;;;;;;0.20;0.00;;;24.70;99.90;;;;;;25489248;23;20198;-71
2022/04/26 15:49:51;;;;;;;0.20;0.00;;;21.50;99.90;;;;;;25483205;23;20210;-73
2022/04/26 15:59:56;;;;;;;0.20;0.10;;;20.90;99.90;;;;;;25512105;23;20191;-70
2022/04/26 16:20:34;;;;;;;0.20;0.00;;;20.60;99.90;;;;;;25484441;23;20175;-70
2022/04/26 16:30:40;;;;;;;0.20;0.10;;;20.40;99.90;;;;;;25490855;23;20230;-71
2022/04/26 16:40:46;;;;;;;0.20;0.10;;;20.00;99.90;;;;;;25518038;23;20191;-70
2022/04/26 16:50:50;;;;;;;0.20;0.07;;;19.80;99.90;;;;;;25519526;23;20206;-73
2022/04/26 17:00:55;;;;;;;0.20;0.10;;;20.10;99.90;;;;;;25522393;23;20203;-73
2022/04/26 17:21:21;;;;;;;0.20;0.10;;;20.70;99.90;;;;;;25521882;23;20274;-72
2022/04/26 17:31:25;;;;;;;0.20;0.00;;;22.30;99.90;;;;;;25526194;23;20191;-72
2022/04/26 17:41:31;;;;;;;0.20;0.00;;;22.40;99.90;;;;;;25527601;23;20302;-78
2022/04/26 17:51:35;;;;;;;0.20;0.10;;;21.10;99.90;;;;;;25523949;23;20193;-73
2022/04/26 18:01:40;;;;;;;0.20;0.10;;;20.90;99.90;;;;;;25526786;23;20198;-72
2022/04/26 18:11:44;;;;;;;0.20;0.00;;;19.50;99.90;;;;;;25524473;23;20218;-71
2022/04/26 18:21:49;;;;;;;0.20;0.00;;;18.80;99.90;;;;;;25534684;23;20182;-73
2022/04/26 18:31:53;;;;;;;0.20;0.10;;;18.40;99.90;;;;;;25507910;23;20191;-71
2022/04/26 18:41:59;;;;;;;0.20;0.10;;;17.90;99.90;;;;;;25534059;23;20274;-71
2022/04/26 18:52:03;;;;;;;0.20;0.07;;;17.80;99.90;;;;;;25536116;23;20194;-74
2022/04/26 19:02:09;;;;;;;0.20;0.00;;;17.50;99.90;;;;;;25542958;23;20205;-71
2022/04/26 19:12:18;;;;;;;0.20;0.10;;;17.20;99.90;;;;;;25519710;23;20953;-72
2022/04/26 19:22:27;;;;;;;0.20;0.10;;;17.00;99.90;;;;;;25515570;23;20171;-72
2022/04/26 19:32:32;;;;;;;0.20;0.10;;;16.90;99.90;;;;;;25510701;23;20234;-73
2022/04/26 19:42:37;;;;;;;0.20;0.00;;;16.40;99.90;;;;;;25518400;23;20343;-71
2022/04/26 19:52:42;;;;;;;0.20;0.10;;;16.40;99.90;;;;;;25490735;23;20206;-71
2022/04/26 20:02:47;;;;;;;0.20;0.10;;;15.70;99.90;;;;;;25547154;23;20191;-72
2022/04/26 20:12:52;;;;;;;0.20;0.10;;;15.60;99.90;;;;;;25542705;23;20191;-71
2022/04/26 20:22:57;;;;;;;0.20;0.10;;;15.40;99.90;;;;;;25544899;23;20182;-71
2022/04/26 20:33:01;;;;;;;0.20;0.10;;;15.20;99.90;;;;;;25542435;23;20183;-71
2022/04/26 20:43:07;;;;;;;0.20;0.10;;;15.30;99.90;;;;;;25539791;23;20529;-71
2022/04/26 20:53:11;;;;;;;0.20;0.00;;;15.00;99.90;;;;;;25511270;23;20186;-72
2022/04/26 21:03:16;;;;;;;0.20;0.00;;;15.10;99.90;;;;;;25540922;23;20198;-71
2022/04/26 21:13:27;;;;;;;0.20;0.10;;;15.00;99.90;;;;;;25513716;23;20187;-71
2022/04/26 21:23:32;;;;;;;0.20;0.00;;;14.70;99.90;;;;;;25513084;23;20178;-73
2022/04/26 21:33:36;;;;;;;0.20;0.00;;;14.60;99.90;;;;;;25538896;23;20183;-71
2022/04/26 21:43:42;;;;;;;0.20;0.00;;;14.20;99.90;;;;;;25526062;23;20258;-72
2022/04/26 21:53:46;;;;;;;0.20;0.10;;;14.10;99.90;;;;;;25530571;23;20454;-72
2022/04/26 22:03:51;;;;;;;0.20;0.10;;;14.30;99.90;;;;;;25500762;23;20195;-72
2022/04/26 22:13:55;;;;;;;0.20;0.10;;;14.50;99.90;;;;;;25530967;23;20186;-72
2022/04/26 22:24:00;;;;;;;0.20;0.00;;;14.40;99.90;;;;;;25528795;23;20172;-72
2022/04/26 22:34:05;;;;;;;0.20;0.00;;;14.50;99.90;;;;;;25536357;23;20199;-72
2022/04/26 22:44:10;;;;;;;0.20;0.10;;;14.40;99.90;;;;;;25538191;23;20210;-73
2022/04/26 22:54:14;;;;;;;0.20;0.00;;;14.30;99.90;;;;;;25537361;23;20187;-72
2022/04/26 23:04:19;;;;;;;0.20;0.10;;;14.10;99.90;;;;;;25536768;23;20250;-72
2022/04/26 23:14:23;;;;;;;0.20;0.10;;;14.00;99.90;;;;;;25510803;23;20201;-71
2022/04/26 23:24:28;;;;;;;0.20;0.10;;;14.00;99.90;;;;;;25535673;23;20171;-70
2022/04/26 23:44:54;;;;;;;0.20;0.10;;;13.70;99.90;;;;;;25507144;23;20202;-71
2022/04/26 23:54:58;;;;;;;0.20;0.10;;;13.90;99.90;;;;;;25534389;23;20661;-71
